Time;durP1;ratioP1;P1;durP2;ratioP2;P2;SDS_P1;SDS_P2;PMS_P1;PMS_P2;Temp;Humidity;BMP_temperature;BMP_pressure;BME280_temperature;BME280_humidity;BME280_pressure;Samples;Min_cycle;Max_cycle;Signal;HPM_P1;HPM_P2
2022/10/06 00:00:19;;;;;;;17.33;9.80;;;;;;;;;;5002034;28;20049;-75
2022/10/06 00:02:45;;;;;;;17.77;9.50;;;;;;;;;;5000173;28;20046;-75
2022/10/06 00:05:11;;;;;;;15.93;8.88;;;;;;;;;;5003331;28;20048;-75
2022/10/06 00:07:38;;;;;;;21.98;9.50;;;;;;;;;;5004746;28;20415;-75
2022/10/06 00:10:04;;;;;;;23.65;11.18;;;;;;;;;;4998087;28;20113;-75
2022/10/06 00:12:38;;;;;;;16.90;8.93;;;;;;;;;;5001631;28;20025;-75
2022/10/06 00:15:04;;;;;;;15.15;7.93;;;;;;;;;;5008452;28;20041;-75
2022/10/06 00:17:30;;;;;;;12.32;7.18;;;;;;;;;;5004952;28;20029;-75
2022/10/06 00:19:56;;;;;;;15.32;7.55;;;;;;;;;;4998948;28;20087;-75
2022/10/06 00:22:22;;;;;;;13.57;7.13;;;;;;;;;;5001140;28;20527;-75
2022/10/06 00:24:48;;;;;;;14.95;8.30;;;;;;;;;;5001848;28;20117;-75
2022/10/06 00:27:14;;;;;;;18.15;9.02;;;;;;;;;;5003809;28;20270;-75
2022/10/06 00:29:41;;;;;;;15.25;8.95;;;;;;;;;;5009142;28;20061;-75
2022/10/06 00:32:08;;;;;;;17.08;9.20;;;;;;;;;;4998912;28;20117;-75
2022/10/06 00:34:35;;;;;;;14.93;8.85;;;;;;;;;;4994658;28;20086;-76
2022/10/06 00:37:01;;;;;;;18.65;8.32;;;;;;;;;;5002800;28;20485;-76
2022/10/06 00:39:27;;;;;;;15.25;8.30;;;;;;;;;;5005282;28;20117;-76
2022/10/06 00:41:53;;;;;;;12.57;7.82;;;;;;;;;;5006236;28;20036;-75
2022/10/06 00:44:19;;;;;;;16.02;7.75;;;;;;;;;;5000338;28;20045;-75
2022/10/06 00:46:48;;;;;;;18.15;8.18;;;;;;;;;;5005780;28;20033;-75
2022/10/06 00:49:17;;;;;;;13.05;8.65;;;;;;;;;;5001672;28;20046;-75
2022/10/06 00:51:51;;;;;;;13.35;8.35;;;;;;;;;;5004221;28;20137;-76
2022/10/06 00:54:18;;;;;;;17.90;9.52;;;;;;;;;;5010003;28;20439;-75
2022/10/06 00:56:44;;;;;;;14.98;8.70;;;;;;;;;;5008199;28;20042;-75
2022/10/06 00:59:11;;;;;;;13.13;7.95;;;;;;;;;;5005052;28;20539;-75
2022/10/06 01:01:38;;;;;;;18.92;9.35;;;;;;;;;;5004551;28;20053;-75
2022/10/06 01:04:07;;;;;;;15.80;9.02;;;;;;;;;;5001185;28;20050;-75
2022/10/06 01:06:41;;;;;;;12.80;6.32;;;;;;;;;;5008143;28;20443;-76
2022/10/06 01:09:07;;;;;;;6.47;3.35;;;;;;;;;;5004872;28;20038;-76
2022/10/06 01:11:36;;;;;;;8.55;4.40;;;;;;;;;;5010119;28;20029;-76
2022/10/06 01:14:02;;;;;;;12.50;7.22;;;;;;;;;;5007358;28;20749;-75
2022/10/06 01:16:28;;;;;;;17.67;9.73;;;;;;;;;;5002531;28;20125;-76
2022/10/06 01:18:55;;;;;;;12.98;7.97;;;;;;;;;;5006628;28;20121;-76
2022/10/06 01:21:26;;;;;;;10.65;6.93;;;;;;;;;;4999864;28;20536;-76
2022/10/06 01:23:53;;;;;;;13.80;7.72;;;;;;;;;;5006630;28;20088;-75
2022/10/06 01:26:20;;;;;;;12.20;8.50;;;;;;;;;;5000436;28;20045;-75
2022/10/06 01:28:46;;;;;;;16.20;10.40;;;;;;;;;;5004318;28;20038;-75
2022/10/06 01:31:13;;;;;;;16.40;11.43;;;;;;;;;;5016102;28;20062;-75
2022/10/06 01:33:40;;;;;;;10.90;6.50;;;;;;;;;;5009938;28;20050;-76
2022/10/06 01:36:06;;;;;;;9.27;2.33;;;;;;;;;;5004206;28;20022;-75
2022/10/06 01:38:32;;;;;;;8.00;2.10;;;;;;;;;;5009380;28;20066;-75
2022/10/06 01:40:58;;;;;;;6.53;1.50;;;;;;;;;;5005732;28;20453;-76
2022/10/06 01:43:24;;;;;;;4.80;1.70;;;;;;;;;;5009687;28;20050;-76
2022/10/06 01:45:58;;;;;;;9.20;3.47;;;;;;;;;;5005424;28;20033;-76
2022/10/06 01:48:24;;;;;;;13.30;4.80;;;;;;;;;;5002622;28;20037;-76
2022/10/06 01:50:50;;;;;;;8.52;4.47;;;;;;;;;;5007372;28;20029;-76
2022/10/06 01:53:16;;;;;;;10.55;6.22;;;;;;;;;;5006000;28;20044;-75
2022/10/06 01:55:43;;;;;;;12.70;5.32;;;;;;;;;;5009106;28;20046;-76
2022/10/06 01:58:09;;;;;;;15.52;5.35;;;;;;;;;;5011604;28;20057;-76
2022/10/06 02:00:36;;;;;;;16.90;7.30;;;;;;;;;;5003242;28;20505;-75
2022/10/06 02:03:02;;;;;;;14.23;6.53;;;;;;;;;;5012378;28;20037;-76
2022/10/06 02:05:28;;;;;;;16.15;7.35;;;;;;;;;;4999435;28;20041;-76
2022/10/06 02:07:54;;;;;;;14.68;7.25;;;;;;;;;;5003219;28;20045;-75
2022/10/06 02:10:20;;;;;;;9.00;3.78;;;;;;;;;;5005561;28;20027;-75
2022/10/06 02:12:52;;;;;;;10.15;2.38;;;;;;;;;;5015102;28;20388;-76
2022/10/06 02:15:19;;;;;;;;;;;;;;;;;;5019231;28;20057;-75
2022/10/06 02:17:45;;;;;;;7.72;1.55;;;;;;;;;;5006334;28;20018;-76
2022/10/06 02:20:11;;;;;;;7.55;1.73;;;;;;;;;;5000125;28;20026;-75
2022/10/06 02:22:38;;;;;;;9.65;2.70;;;;;;;;;;5005991;28;20030;-75
2022/10/06 02:25:04;;;;;;;6.47;3.05;;;;;;;;;;5013722;28;20088;-75
2022/10/06 02:27:30;;;;;;;8.73;3.03;;;;;;;;;;5004134;28;20536;-75
2022/10/06 02:29:56;;;;;;;7.50;3.30;;;;;;;;;;5004220;28;20448;-75
2022/10/06 02:32:22;;;;;;;8.38;2.00;;;;;;;;;;5004859;28;20045;-76
2022/10/06 02:34:48;;;;;;;6.50;1.75;;;;;;;;;;5000077;28;20054;-75
2022/10/06 02:37:15;;;;;;;4.93;1.45;;;;;;;;;;5003626;28;20030;-76
2022/10/06 02:39:41;;;;;;;5.55;2.10;;;;;;;;;;5009533;28;20452;-76
2022/10/06 02:42:07;;;;;;;8.82;3.08;;;;;;;;;;4998730;28;20027;-76
2022/10/06 02:44:33;;;;;;;6.07;3.05;;;;;;;;;;5004897;28;20040;-75
2022/10/06 02:46:59;;;;;;;9.23;3.70;;;;;;;;;;5006988;28;20424;-76
2022/10/06 02:49:25;;;;;;;10.27;3.67;;;;;;;;;;5003308;28;20108;-76
2022/10/06 02:51:52;;;;;;;10.90;3.97;;;;;;;;;;5013092;28;20034;-76
2022/10/06 02:54:18;;;;;;;7.63;3.00;;;;;;;;;;5007848;28;20580;-75
2022/10/06 02:56:44;;;;;;;10.85;3.70;;;;;;;;;;5004542;28;20047;-75
2022/10/06 02:59:10;;;;;;;7.07;2.80;;;;;;;;;;5007278;28;20033;-75
2022/10/06 03:01:36;;;;;;;6.65;3.42;;;;;;;;;;5010678;28;20108;-76
2022/10/06 03:04:02;;;;;;;7.43;3.10;;;;;;;;;;5005426;28;20041;-75
2022/10/06 03:06:30;;;;;;;7.05;3.22;;;;;;;;;;5008169;28;20041;-76
2022/10/06 03:09:00;;;;;;;10.30;4.18;;;;;;;;;;4999279;28;20672;-76
2022/10/06 03:11:27;;;;;;;8.95;3.20;;;;;;;;;;5003748;28;20895;-76
2022/10/06 03:13:53;;;;;;;9.25;3.17;;;;;;;;;;5012332;28;20057;-75
2022/10/06 03:16:23;;;;;;;8.68;3.53;;;;;;;;;;5006720;28;20786;-76
2022/10/06 03:18:50;;;;;;;10.35;3.38;;;;;;;;;;5002575;28;20095;-75
2022/10/06 03:21:17;;;;;;;10.75;3.20;;;;;;;;;;5008016;28;20037;-76
2022/10/06 03:23:43;;;;;;;14.38;4.15;;;;;;;;;;5004630;28;20042;-76
2022/10/06 03:26:10;;;;;;;11.50;4.13;;;;;;;;;;5004186;28;20117;-76
2022/10/06 03:28:36;;;;;;;8.27;3.53;;;;;;;;;;5004250;28;20038;-76
2022/10/06 03:31:03;;;;;;;9.93;3.33;;;;;;;;;;5005443;28;20038;-76
2022/10/06 03:33:29;;;;;;;10.95;3.42;;;;;;;;;;5001080;28;20125;-75
2022/10/06 03:36:02;;;;;;;10.00;3.70;;;;;;;;;;5006198;28;20117;-75
2022/10/06 03:38:29;;;;;;;7.75;3.40;;;;;;;;;;5007596;28;20041;-75
2022/10/06 03:41:19;;;;;;;9.90;4.13;;;;;;;;;;5007129;28;20033;-76
2022/10/06 03:43:45;;;;;;;10.80;3.60;;;;;;;;;;4995082;28;20496;-76
2022/10/06 03:46:12;;;;;;;7.53;3.35;;;;;;;;;;5011997;28;20083;-75
2022/10/06 03:48:39;;;;;;;6.82;2.90;;;;;;;;;;5004083;28;20068;-76
2022/10/06 03:51:10;;;;;;;13.35;3.75;;;;;;;;;;4998200;28;20516;-76
2022/10/06 03:53:37;;;;;;;13.73;3.38;;;;;;;;;;5006566;28;20038;-75
2022/10/06 03:56:03;;;;;;;7.70;3.25;;;;;;;;;;5004072;28;20053;-76
2022/10/06 03:58:30;;;;;;;14.15;3.30;;;;;;;;;;5012728;28;20067;-76
2022/10/06 04:00:59;;;;;;;13.00;3.15;;;;;;;;;;5004373;28;20045;-76
2022/10/06 04:03:25;;;;;;;12.32;4.20;;;;;;;;;;5001290;28;20037;-76
2022/10/06 04:05:55;;;;;;;7.97;3.72;;;;;;;;;;5005111;28;20048;-76
2022/10/06 04:08:21;;;;;;;15.80;3.30;;;;;;;;;;4999468;28;20756;-76
2022/10/06 04:10:48;;;;;;;6.00;2.22;;;;;;;;;;4999462;28;20096;-76
2022/10/06 04:13:17;;;;;;;5.07;1.77;;;;;;;;;;4999494;28;20080;-75
2022/10/06 04:15:44;;;;;;;7.30;2.30;;;;;;;;;;5003605;28;20038;-76
2022/10/06 04:18:10;;;;;;;5.57;2.55;;;;;;;;;;5006950;28;20080;-76
2022/10/06 04:20:36;;;;;;;12.20;3.80;;;;;;;;;;5011163;28;20059;-76
2022/10/06 04:23:02;;;;;;;14.88;4.00;;;;;;;;;;5015925;28;20144;-75
2022/10/06 04:25:29;;;;;;;9.60;4.20;;;;;;;;;;5017698;28;20034;-76
2022/10/06 04:27:56;;;;;;;8.52;3.85;;;;;;;;;;5011022;28;20043;-76
2022/10/06 04:30:22;;;;;;;11.90;4.70;;;;;;;;;;5007884;28;20569;-76
2022/10/06 04:32:48;;;;;;;6.25;2.30;;;;;;;;;;5009598;28;20121;-75
2022/10/06 04:35:14;;;;;;;7.18;2.45;;;;;;;;;;5005527;28;20125;-75
2022/10/06 04:37:40;;;;;;;5.85;2.70;;;;;;;;;;5008821;28;20397;-75
2022/10/06 04:40:06;;;;;;;10.63;4.38;;;;;;;;;;5014036;28;20035;-75
2022/10/06 04:42:32;;;;;;;10.38;4.38;;;;;;;;;;5015257;28;20519;-76
2022/10/06 04:44:58;;;;;;;9.48;4.05;;;;;;;;;;5010322;28;20062;-75
2022/10/06 04:47:24;;;;;;;13.75;4.05;;;;;;;;;;5000112;28;20034;-75
2022/10/06 04:49:50;;;;;;;10.52;4.30;;;;;;;;;;5010001;28;20085;-76
2022/10/06 04:52:16;;;;;;;10.63;5.28;;;;;;;;;;5013154;28;20472;-76
2022/10/06 04:54:42;;;;;;;9.20;3.63;;;;;;;;;;5003993;28;20034;-75
2022/10/06 04:57:08;;;;;;;9.45;2.90;;;;;;;;;;5006379;28;20109;-76
2022/10/06 05:02:19;;;;;;;14.32;4.78;;;;;;;;;;5004861;28;20283;-76
2022/10/06 05:04:45;;;;;;;11.27;4.43;;;;;;;;;;5003466;28;20030;-75
2022/10/06 05:07:12;;;;;;;9.50;4.40;;;;;;;;;;5010168;28;20025;-76
2022/10/06 05:09:38;;;;;;;15.75;4.93;;;;;;;;;;5003506;28;20120;-76
2022/10/06 05:12:04;;;;;;;12.30;4.70;;;;;;;;;;5004565;28;20133;-75
2022/10/06 05:14:32;;;;;;;18.00;6.13;;;;;;;;;;5005839;28;20034;-75
2022/10/06 05:16:58;;;;;;;12.52;4.80;;;;;;;;;;4996530;28;20121;-76
2022/10/06 05:19:24;;;;;;;15.93;4.57;;;;;;;;;;5004704;28;20044;-75
2022/10/06 05:21:50;;;;;;;10.68;3.60;;;;;;;;;;5011370;28;20037;-75
2022/10/06 05:24:16;;;;;;;9.82;2.92;;;;;;;;;;5002224;28;20053;-75
2022/10/06 05:26:42;;;;;;;6.20;1.83;;;;;;;;;;5009854;28;20084;-76
2022/10/06 05:29:08;;;;;;;6.75;1.95;;;;;;;;;;5003037;28;20049;-74
2022/10/06 05:31:39;;;;;;;4.95;1.88;;;;;;;;;;4998133;28;20057;-75
2022/10/06 05:34:06;;;;;;;12.80;5.05;;;;;;;;;;5000732;28;20116;-75
2022/10/06 05:36:33;;;;;;;16.08;6.75;;;;;;;;;;5011364;28;20034;-75
2022/10/06 05:38:59;;;;;;;16.00;6.57;;;;;;;;;;5004708;28;20139;-75
2022/10/06 05:41:29;;;;;;;15.30;6.05;;;;;;;;;;5005845;28;20477;-76
2022/10/06 05:43:55;;;;;;;11.48;4.50;;;;;;;;;;5007683;28;20366;-76
2022/10/06 05:46:23;;;;;;;14.43;5.18;;;;;;;;;;5003423;28;20033;-76
2022/10/06 05:48:56;;;;;;;12.73;4.85;;;;;;;;;;4998824;28;20454;-75
2022/10/06 05:51:23;;;;;;;13.00;5.03;;;;;;;;;;5009711;28;20746;-76
2022/10/06 05:53:49;;;;;;;18.52;5.95;;;;;;;;;;5018079;28;20034;-76
2022/10/06 05:56:23;;;;;;;16.13;5.80;;;;;;;;;;5003755;28;20434;-76
2022/10/06 05:58:50;;;;;;;12.35;5.45;;;;;;;;;;5003923;28;20042;-76
2022/10/06 06:01:17;;;;;;;18.83;5.72;;;;;;;;;;4999796;28;20041;-75
2022/10/06 06:03:48;;;;;;;21.70;6.30;;;;;;;;;;5004784;28;20042;-76
2022/10/06 06:06:16;;;;;;;16.70;5.50;;;;;;;;;;5004916;28;20034;-76
2022/10/06 06:08:42;;;;;;;17.35;6.22;;;;;;;;;;5006729;28;20038;-76
2022/10/06 06:11:08;;;;;;;13.60;6.05;;;;;;;;;;5000892;28;20034;-75
2022/10/06 06:13:34;;;;;;;13.05;5.38;;;;;;;;;;4999886;28;20062;-76
2022/10/06 06:16:03;;;;;;;17.10;6.07;;;;;;;;;;5003266;28;20101;-75
2022/10/06 06:18:29;;;;;;;11.15;3.92;;;;;;;;;;5002822;28;20827;-76
2022/10/06 06:20:59;;;;;;;5.97;2.13;;;;;;;;;;5006717;28;20041;-76
2022/10/06 06:23:30;;;;;;;12.63;2.33;;;;;;;;;;5002675;28;20037;-75
2022/10/06 06:26:16;;;;;;;10.60;2.22;;;;;;;;;;5002780;28;20084;-75
2022/10/06 06:28:44;;;;;;;12.65;4.88;;;;;;;;;;5000330;28;20123;-75
2022/10/06 06:31:21;;;;;;;14.88;7.15;;;;;;;;;;5004662;28;20029;-75
2022/10/06 06:33:48;;;;;;;20.65;7.22;;;;;;;;;;5002474;28;20519;-76
2022/10/06 06:36:17;;;;;;;30.67;9.75;;;;;;;;;;4997495;28;20258;-75
2022/10/06 06:38:45;;;;;;;12.20;6.10;;;;;;;;;;5006954;28;20069;-75
2022/10/06 06:41:16;;;;;;;14.57;6.70;;;;;;;;;;5004940;28;20465;-75
2022/10/06 06:43:42;;;;;;;24.15;6.57;;;;;;;;;;5001713;28;20034;-76
2022/10/06 06:46:08;;;;;;;13.25;5.22;;;;;;;;;;5000313;28;20117;-76
2022/10/06 06:48:36;;;;;;;12.00;4.90;;;;;;;;;;5002151;28;20034;-76
2022/10/06 06:51:02;;;;;;;11.57;4.50;;;;;;;;;;5004484;28;20029;-76
2022/10/06 06:53:28;;;;;;;9.88;5.68;;;;;;;;;;5001636;28;20719;-75
2022/10/06 06:55:54;;;;;;;16.48;6.05;;;;;;;;;;5004942;28;20260;-76
2022/10/06 06:58:20;;;;;;;14.20;6.13;;;;;;;;;;5012602;28;20049;-76
2022/10/06 07:00:49;;;;;;;12.00;5.03;;;;;;;;;;5006102;28;20521;-76
2022/10/06 07:03:16;;;;;;;13.77;5.20;;;;;;;;;;5007188;28;20049;-75
2022/10/06 07:05:45;;;;;;;6.28;2.40;;;;;;;;;;5003710;28;20034;-76
2022/10/06 07:08:11;;;;;;;9.05;2.25;;;;;;;;;;4999914;28;20029;-75
2022/10/06 07:10:37;;;;;;;13.27;3.95;;;;;;;;;;4999336;28;20026;-76
2022/10/06 07:13:05;;;;;;;21.48;5.82;;;;;;;;;;4997939;28;20037;-75
2022/10/06 07:26:32;;;;;;;9.55;2.33;;;;;;;;;;4998456;28;20409;-76
2022/10/06 07:29:01;;;;;;;6.80;2.50;;;;;;;;;;5003818;28;20041;-75
2022/10/06 07:31:32;;;;;;;13.85;3.38;;;;;;;;;;5010792;28;20128;-76
2022/10/06 07:33:58;;;;;;;21.95;5.78;;;;;;;;;;4994323;28;20037;-76
2022/10/06 07:36:24;;;;;;;15.10;5.35;;;;;;;;;;5002891;28;20084;-76
2022/10/06 07:38:50;;;;;;;15.32;5.45;;;;;;;;;;5002243;28;20034;-76
2022/10/06 07:41:16;;;;;;;18.48;6.40;;;;;;;;;;5007262;28;20044;-76
2022/10/06 07:43:42;;;;;;;11.23;3.50;;;;;;;;;;5002365;28;20034;-76
2022/10/06 07:46:11;;;;;;;13.50;3.63;;;;;;;;;;5001907;28;20045;-76
2022/10/06 07:48:38;;;;;;;8.35;2.33;;;;;;;;;;5004938;28;20034;-76
2022/10/06 07:51:05;;;;;;;8.77;2.47;;;;;;;;;;5006710;28;20045;-76
2022/10/06 07:53:34;;;;;;;6.50;2.33;;;;;;;;;;5006343;28;20022;-76
2022/10/06 07:56:04;;;;;;;3.72;1.60;;;;;;;;;;5005532;28;20517;-76
2022/10/06 07:58:30;;;;;;;8.35;2.80;;;;;;;;;;5002358;28;20034;-76
2022/10/06 08:01:03;;;;;;;12.00;3.95;;;;;;;;;;4996686;28;20046;-76
2022/10/06 08:03:29;;;;;;;15.98;3.95;;;;;;;;;;5005353;28;20787;-76
2022/10/06 08:05:58;;;;;;;9.20;3.97;;;;;;;;;;5001584;28;20139;-77
2022/10/06 08:08:24;;;;;;;12.93;3.88;;;;;;;;;;5003579;28;20034;-76
2022/10/06 08:10:57;;;;;;;15.07;3.00;;;;;;;;;;5000604;28;20038;-77
2022/10/06 08:13:24;;;;;;;7.30;2.70;;;;;;;;;;4995803;28;20021;-76
2022/10/06 08:15:50;;;;;;;10.05;2.65;;;;;;;;;;4997338;28;20030;-76
2022/10/06 08:18:20;;;;;;;5.22;1.58;;;;;;;;;;4998307;28;20370;-76
2022/10/06 08:20:46;;;;;;;7.75;1.85;;;;;;;;;;5005736;28;20680;-76
2022/10/06 08:23:12;;;;;;;8.55;1.45;;;;;;;;;;5008552;28;20038;-76
2022/10/06 08:25:42;;;;;;;9.25;1.70;;;;;;;;;;5001472;28;20035;-76
2022/10/06 08:28:11;;;;;;;5.03;1.45;;;;;;;;;;4998823;28;20515;-77
2022/10/06 08:30:38;;;;;;;13.75;4.25;;;;;;;;;;5002736;28;20022;-76
2022/10/06 08:33:04;;;;;;;17.95;4.45;;;;;;;;;;4997543;28;20058;-77
2022/10/06 08:35:31;;;;;;;12.20;2.97;;;;;;;;;;5002937;28;20058;-77
2022/10/06 08:37:57;;;;;;;14.00;3.03;;;;;;;;;;4997073;28;20456;-77
2022/10/06 08:40:24;;;;;;;10.27;2.65;;;;;;;;;;5004276;28;20041;-76
2022/10/06 08:42:51;;;;;;;9.75;1.98;;;;;;;;;;5008158;28;20045;-76
2022/10/06 08:45:25;;;;;;;6.25;1.80;;;;;;;;;;4999978;28;20421;-76
2022/10/06 08:47:54;;;;;;;10.48;2.38;;;;;;;;;;5006314;28;20417;-76
2022/10/06 08:50:21;;;;;;;7.13;2.30;;;;;;;;;;5006125;28;20029;-76
2022/10/06 08:52:57;;;;;;;10.57;2.58;;;;;;;;;;5005010;28;20026;-77
2022/10/06 08:55:26;;;;;;;6.75;2.15;;;;;;;;;;5001286;28;20038;-77
2022/10/06 08:57:52;;;;;;;11.55;2.45;;;;;;;;;;5004224;28;20025;-77
2022/10/06 09:00:18;;;;;;;7.95;2.35;;;;;;;;;;5003007;28;20038;-77
2022/10/06 09:02:46;;;;;;;11.73;2.65;;;;;;;;;;5005869;28;20493;-77
2022/10/06 09:05:13;;;;;;;7.10;2.03;;;;;;;;;;5001557;28;20038;-77
2022/10/06 09:07:47;;;;;;;9.05;2.40;;;;;;;;;;5008621;28;20121;-77
2022/10/06 09:10:40;;;;;;;9.57;1.90;;;;;;;;;;5004920;28;20026;-77
2022/10/06 09:13:11;;;;;;;7.15;2.88;;;;;;;;;;5003035;28;20040;-77
2022/10/06 09:15:45;;;;;;;9.52;2.67;;;;;;;;;;5001867;28;20056;-77
2022/10/06 09:18:12;;;;;;;17.00;2.30;;;;;;;;;;5001028;28;20385;-77
2022/10/06 09:20:41;;;;;;;12.35;2.92;;;;;;;;;;5003523;28;20037;-77
2022/10/06 09:23:11;;;;;;;8.85;2.55;;;;;;;;;;5008776;28;20058;-77
2022/10/06 09:25:37;;;;;;;5.40;2.13;;;;;;;;;;5002862;28;20038;-76
2022/10/06 09:28:04;;;;;;;10.10;2.00;;;;;;;;;;5005262;28;20046;-76
2022/10/06 09:30:30;;;;;;;9.68;2.33;;;;;;;;;;5003834;28;20102;-77
2022/10/06 09:33:01;;;;;;;6.63;1.88;;;;;;;;;;5005104;28;20030;-77
2022/10/06 09:35:29;;;;;;;7.83;1.70;;;;;;;;;;5002513;28;20745;-77
2022/10/06 09:38:03;;;;;;;8.68;2.15;;;;;;;;;;4993816;28;20309;-77
2022/10/06 09:40:49;;;;;;;7.60;1.80;;;;;;;;;;5004914;28;20136;-77
2022/10/06 09:43:28;;;;;;;6.20;2.00;;;;;;;;;;5009293;28;20041;-77
2022/10/06 09:45:55;;;;;;;11.10;2.55;;;;;;;;;;5006889;28;20046;-77
2022/10/06 09:48:24;;;;;;;11.27;2.70;;;;;;;;;;5006367;28;20133;-77
2022/10/06 09:51:06;;;;;;;13.00;2.80;;;;;;;;;;5005661;28;20397;-77
2022/10/06 09:53:32;;;;;;;6.50;2.00;;;;;;;;;;5000684;28;20487;-77
2022/10/06 09:55:58;;;;;;;6.22;1.80;;;;;;;;;;5000797;28;20121;-77
2022/10/06 09:58:31;;;;;;;5.90;1.92;;;;;;;;;;4995897;28;20030;-77
2022/10/06 10:01:01;;;;;;;9.68;1.83;;;;;;;;;;5007035;28;20034;-77
2022/10/06 10:03:40;;;;;;;6.38;1.90;;;;;;;;;;5000035;28;20824;-77
2022/10/06 10:06:07;;;;;;;6.03;1.58;;;;;;;;;;5008720;28;20037;-77
2022/10/06 10:08:34;;;;;;;7.65;2.00;;;;;;;;;;5012001;28;20025;-77
2022/10/06 10:13:53;;;;;;;5.45;1.30;;;;;;;;;;5000677;28;20131;-77
2022/10/06 10:16:23;;;;;;;8.43;1.83;;;;;;;;;;4998470;28;20029;-77
2022/10/06 10:18:50;;;;;;;4.50;1.75;;;;;;;;;;4998999;28;20037;-78
2022/10/06 10:21:32;;;;;;;6.50;1.65;;;;;;;;;;4993836;28;20477;-77
2022/10/06 10:23:58;;;;;;;8.37;1.97;;;;;;;;;;5006079;28;20022;-77
2022/10/06 10:26:30;;;;;;;6.85;1.73;;;;;;;;;;4999523;28;20026;-77
2022/10/06 10:29:13;;;;;;;6.22;1.58;;;;;;;;;;5007679;28;20038;-77
2022/10/06 10:31:54;;;;;;;7.45;1.60;;;;;;;;;;5007328;28;20029;-77
2022/10/06 10:34:43;;;;;;;7.47;1.85;;;;;;;;;;5001215;28;20045;-77
2022/10/06 10:37:11;;;;;;;6.22;2.13;;;;;;;;;;4999328;28;20081;-77
2022/10/06 10:39:50;;;;;;;6.60;1.92;;;;;;;;;;4999880;28;20029;-77
2022/10/06 10:42:36;;;;;;;5.68;2.13;;;;;;;;;;5007639;28;20037;-77
2022/10/06 10:45:03;;;;;;;7.15;2.03;;;;;;;;;;5013551;28;20025;-77
2022/10/06 10:47:33;;;;;;;4.85;1.80;;;;;;;;;;5002907;28;20053;-77
2022/10/06 10:50:19;;;;;;;6.60;1.92;;;;;;;;;;5001770;28;20048;-77
2022/10/06 10:52:46;;;;;;;9.07;2.03;;;;;;;;;;5001028;28;20539;-77
2022/10/06 10:55:25;;;;;;;6.70;2.05;;;;;;;;;;5001081;28;20523;-77
2022/10/06 10:57:53;;;;;;;5.55;1.83;;;;;;;;;;4998587;28;20088;-77
2022/10/06 11:00:26;;;;;;;8.10;1.73;;;;;;;;;;5001698;28;20042;-77
2022/10/06 11:02:54;;;;;;;5.25;1.77;;;;;;;;;;5004595;28;20026;-77
2022/10/06 11:05:41;;;;;;;9.20;2.10;;;;;;;;;;5002828;28;20465;-77
2022/10/06 11:08:15;;;;;;;6.38;1.65;;;;;;;;;;5000491;28;20057;-77
2022/10/06 11:10:53;;;;;;;8.00;1.90;;;;;;;;;;5001820;28;20038;-77
2022/10/06 11:13:19;;;;;;;7.15;2.08;;;;;;;;;;5000304;28;20030;-77
2022/10/06 11:15:57;;;;;;;6.22;2.03;;;;;;;;;;5004768;28;20079;-77
2022/10/06 11:18:42;;;;;;;4.50;1.80;;;;;;;;;;5004892;28;20030;-77
2022/10/06 11:21:14;;;;;;;10.02;2.47;;;;;;;;;;5005345;28;20038;-77
2022/10/06 11:23:46;;;;;;;5.28;1.80;;;;;;;;;;4998670;28;20061;-77
2022/10/06 11:26:18;;;;;;;8.93;1.70;;;;;;;;;;4997828;28;20034;-77
2022/10/06 11:28:49;;;;;;;7.88;2.08;;;;;;;;;;5006672;28;20564;-77
2022/10/06 11:31:18;;;;;;;8.38;2.10;;;;;;;;;;5002476;28;20503;-77
2022/10/06 11:33:47;;;;;;;5.18;1.73;;;;;;;;;;5003899;28;20057;-77
2022/10/06 11:36:17;;;;;;;8.85;2.08;;;;;;;;;;5004242;28;20041;-77
2022/10/06 11:38:57;;;;;;;8.05;2.15;;;;;;;;;;4997972;28;20038;-77
2022/10/06 11:41:23;;;;;;;5.43;1.90;;;;;;;;;;4999756;28;20081;-77
2022/10/06 11:43:49;;;;;;;5.55;1.80;;;;;;;;;;5001002;28;20428;-76
2022/10/06 11:46:28;;;;;;;7.20;1.85;;;;;;;;;;5003101;28;20068;-77
2022/10/06 11:49:14;;;;;;;7.68;1.75;;;;;;;;;;4999722;28;20029;-77
2022/10/06 11:51:40;;;;;;;7.53;1.83;;;;;;;;;;5007095;28;20038;-76
2022/10/06 11:54:26;;;;;;;8.68;2.38;;;;;;;;;;5008866;28;20092;-76
2022/10/06 11:56:52;;;;;;;7.93;1.40;;;;;;;;;;5003356;28;20152;-77
2022/10/06 11:59:25;;;;;;;8.20;1.90;;;;;;;;;;4998635;28;20026;-76
2022/10/06 12:01:52;;;;;;;3.72;1.40;;;;;;;;;;5004782;28;20077;-77
2022/10/06 12:04:19;;;;;;;8.60;1.90;;;;;;;;;;5003921;28;20041;-77
2022/10/06 12:06:45;;;;;;;7.10;1.83;;;;;;;;;;5001911;28;20553;-77
2022/10/06 12:09:23;;;;;;;7.95;1.90;;;;;;;;;;5000825;28;20673;-77
2022/10/06 12:11:50;;;;;;;9.45;2.10;;;;;;;;;;5000621;28;20037;-77
2022/10/06 12:14:31;;;;;;;5.35;1.98;;;;;;;;;;5006353;28;20085;-77
2022/10/06 12:17:15;;;;;;;7.50;1.70;;;;;;;;;;5002275;28;20038;-77
2022/10/06 12:19:41;;;;;;;6.63;2.05;;;;;;;;;;5006114;28;20284;-77
2022/10/06 12:22:21;;;;;;;9.13;2.10;;;;;;;;;;4993504;28;20504;-77
2022/10/06 12:25:00;;;;;;;8.00;2.10;;;;;;;;;;5003081;28;20694;-76
2022/10/06 12:27:33;;;;;;;7.13;2.40;;;;;;;;;;5001860;28;20041;-77
2022/10/06 12:30:02;;;;;;;7.97;2.15;;;;;;;;;;4999422;28;20085;-77
2022/10/06 12:32:45;;;;;;;6.68;1.92;;;;;;;;;;4999155;28;20050;-77
2022/10/06 12:35:14;;;;;;;7.53;2.03;;;;;;;;;;5003401;28;20053;-77
2022/10/06 12:37:40;;;;;;;9.52;2.10;;;;;;;;;;4994175;28;20450;-76
2022/10/06 12:40:29;;;;;;;11.55;2.40;;;;;;;;;;5002702;28;20050;-76
2022/10/06 12:43:09;;;;;;;10.98;2.80;;;;;;;;;;4999749;28;20065;-76
2022/10/06 12:45:37;;;;;;;10.40;2.13;;;;;;;;;;5002409;28;20413;-77
2022/10/06 12:48:04;;;;;;;8.43;2.22;;;;;;;;;;5000720;28;20427;-77
2022/10/06 12:50:30;;;;;;;8.68;2.30;;;;;;;;;;5006035;28;20081;-77
2022/10/06 12:53:04;;;;;;;9.27;2.17;;;;;;;;;;5004117;28;20104;-77
2022/10/06 12:55:49;;;;;;;15.13;2.90;;;;;;;;;;5005924;28;20049;-77
2022/10/06 12:58:19;;;;;;;5.28;1.95;;;;;;;;;;5002970;28;20091;-77
2022/10/06 13:00:46;;;;;;;8.13;1.80;;;;;;;;;;5005233;28;20049;-77
2022/10/06 13:03:24;;;;;;;11.23;3.20;;;;;;;;;;5004134;28;20043;-77
2022/10/06 13:05:52;;;;;;;10.85;2.50;;;;;;;;;;5008211;28;20034;-77
2022/10/06 13:08:26;;;;;;;7.95;1.95;;;;;;;;;;5007538;28;20121;-77
2022/10/06 13:11:10;;;;;;;5.00;1.65;;;;;;;;;;5002618;28;20481;-77
2022/10/06 13:13:37;;;;;;;5.20;1.92;;;;;;;;;;5009085;28;20030;-77
2022/10/06 13:16:03;;;;;;;6.78;1.88;;;;;;;;;;5000392;28;20037;-77
2022/10/06 13:18:31;;;;;;;3.78;1.48;;;;;;;;;;5013467;28;20411;-77
2022/10/06 13:20:58;;;;;;;8.05;2.20;;;;;;;;;;5010741;28;20038;-77
2022/10/06 13:23:29;;;;;;;5.18;1.40;;;;;;;;;;5014419;28;20088;-77
2022/10/06 13:25:56;;;;;;;9.32;2.60;;;;;;;;;;5006445;28;20037;-77
2022/10/06 13:28:27;;;;;;;8.55;2.00;;;;;;;;;;5007525;28;20035;-77
2022/10/06 13:30:57;;;;;;;4.63;1.70;;;;;;;;;;5010245;28;20430;-77
2022/10/06 13:33:25;;;;;;;5.65;1.92;;;;;;;;;;5006403;28;20073;-76
2022/10/06 13:35:52;;;;;;;6.65;1.90;;;;;;;;;;5007219;28;20069;-77
2022/10/06 13:38:18;;;;;;;7.88;1.98;;;;;;;;;;5003388;28;20084;-77
2022/10/06 13:40:45;;;;;;;7.45;1.70;;;;;;;;;;5004584;28;20109;-77
2022/10/06 13:43:15;;;;;;;5.78;1.50;;;;;;;;;;5009361;28;20065;-77
2022/10/06 13:45:43;;;;;;;10.43;1.70;;;;;;;;;;5010455;28;20029;-77
2022/10/06 13:48:14;;;;;;;4.82;1.73;;;;;;;;;;5011320;28;20519;-77
2022/10/06 13:50:48;;;;;;;8.85;2.03;;;;;;;;;;5002128;28;20081;-77
2022/10/06 13:53:23;;;;;;;4.00;1.40;;;;;;;;;;5001605;28;20137;-77
2022/10/06 13:55:49;;;;;;;7.05;1.60;;;;;;;;;;5012008;28;20034;-77
2022/10/06 13:58:21;;;;;;;5.40;1.52;;;;;;;;;;5011740;28;20672;-77
2022/10/06 14:00:59;;;;;;;5.20;1.60;;;;;;;;;;5008077;28;20026;-76
2022/10/06 14:03:27;;;;;;;4.45;1.55;;;;;;;;;;5006858;28;20037;-77
2022/10/06 14:06:05;;;;;;;5.97;1.67;;;;;;;;;;5012007;28;20038;-77
2022/10/06 14:08:31;;;;;;;10.60;1.60;;;;;;;;;;5001566;28;20042;-77
2022/10/06 14:10:59;;;;;;;9.93;2.00;;;;;;;;;;5002700;28;20064;-77
2022/10/06 14:13:26;;;;;;;8.85;1.60;;;;;;;;;;5004332;28;20049;-77
2022/10/06 14:16:03;;;;;;;10.35;2.00;;;;;;;;;;5005216;28;20036;-77
2022/10/06 14:18:38;;;;;;;5.18;1.60;;;;;;;;;;4998181;28;20057;-77
2022/10/06 14:21:19;;;;;;;9.05;2.90;;;;;;;;;;5004771;28;20116;-77
2022/10/06 14:23:50;;;;;;;8.52;1.55;;;;;;;;;;5005298;28;20042;-77
2022/10/06 14:26:17;;;;;;;8.90;1.40;;;;;;;;;;5005525;28;20030;-77
2022/10/06 14:28:47;;;;;;;8.43;1.60;;;;;;;;;;5008157;28;20087;-77
2022/10/06 14:31:13;;;;;;;8.13;1.77;;;;;;;;;;5008725;28;20234;-76
2022/10/06 14:33:39;;;;;;;10.45;1.58;;;;;;;;;;5005362;28;20169;-77
2022/10/06 14:36:05;;;;;;;7.93;1.50;;;;;;;;;;5002860;28;20567;-77
2022/10/06 14:38:32;;;;;;;8.90;1.88;;;;;;;;;;5001537;28;20042;-77
2022/10/06 14:41:01;;;;;;;7.40;1.90;;;;;;;;;;5004688;28;20496;-77
2022/10/06 14:43:27;;;;;;;6.95;1.55;;;;;;;;;;5003592;28;20092;-77
2022/10/06 14:45:53;;;;;;;5.93;1.38;;;;;;;;;;4998676;28;20038;-77
2022/10/06 14:48:19;;;;;;;6.78;1.83;;;;;;;;;;5004636;28;20069;-77
2022/10/06 14:50:46;;;;;;;8.52;2.13;;;;;;;;;;5000127;28;20045;-77
2022/10/06 14:53:16;;;;;;;8.30;1.40;;;;;;;;;;4998032;28;20030;-77
2022/10/06 14:55:43;;;;;;;9.60;1.95;;;;;;;;;;5003993;28;20027;-77
2022/10/06 14:58:09;;;;;;;6.10;1.60;;;;;;;;;;5005344;28;20534;-77
2022/10/06 15:00:38;;;;;;;4.07;1.30;;;;;;;;;;4997745;28;20998;-77
2022/10/06 15:03:04;;;;;;;4.68;1.40;;;;;;;;;;5007924;28;20060;-77
2022/10/06 15:05:30;;;;;;;9.35;2.50;;;;;;;;;;4997845;28;20026;-76